sensor_id;sensor_type;location;lat;lon;timestamp;P1;durP1;ratioP1;P2;durP2;ratioP2
71914;SDS011;60387;49.994;14.660;2022-10-17T00:01:49;16.07;;;7.10;;
71914;SDS011;60387;49.994;14.660;2022-10-17T00:04:23;17.97;;;7.03;;
71914;SDS011;60387;49.994;14.660;2022-10-17T00:06:56;17.00;;;6.77;;
71914;SDS011;60387;49.994;14.660;2022-10-17T00:09:29;16.60;;;7.03;;
71914;SDS011;60387;49.994;14.660;2022-10-17T00:12:02;16.83;;;6.57;;
71914;SDS011;60387;49.994;14.660;2022-10-17T00:14:36;17.93;;;7.17;;
71914;SDS011;60387;49.994;14.660;2022-10-17T00:17:09;16.63;;;6.93;;
71914;SDS011;60387;49.994;14.660;2022-10-17T00:19:43;16.97;;;7.10;;
71914;SDS011;60387;49.994;14.660;2022-10-17T00:22:16;15.13;;;6.30;;
71914;SDS011;60387;49.994;14.660;2022-10-17T00:24:49;17.83;;;7.07;;
71914;SDS011;60387;49.994;14.660;2022-10-17T00:27:22;16.67;;;6.57;;
71914;SDS011;60387;49.994;14.660;2022-10-17T00:29:56;16.47;;;6.63;;
71914;SDS011;60387;49.994;14.660;2022-10-17T00:32:29;18.03;;;8.07;;
71914;SDS011;60387;49.994;14.660;2022-10-17T00:35:02;17.33;;;7.30;;
71914;SDS011;60387;49.994;14.660;2022-10-17T00:37:36;18.52;;;7.57;;
71914;SDS011;60387;49.994;14.660;2022-10-17T00:40:09;16.73;;;7.53;;
71914;SDS011;60387;49.994;14.660;2022-10-17T00:42:43;16.83;;;6.90;;
71914;SDS011;60387;49.994;14.660;2022-10-17T00:48:02;19.92;;;8.13;;
71914;SDS011;60387;49.994;14.660;2022-10-17T00:50:41;18.63;;;7.78;;
71914;SDS011;60387;49.994;14.660;2022-10-17T00:53:18;19.60;;;7.37;;
71914;SDS011;60387;49.994;14.660;2022-10-17T00:55:51;17.50;;;7.73;;
71914;SDS011;60387;49.994;14.660;2022-10-17T00:58:25;20.08;;;7.90;;
71914;SDS011;60387;49.994;14.660;2022-10-17T01:00:59;20.03;;;8.03;;
71914;SDS011;60387;49.994;14.660;2022-10-17T01:03:34;17.58;;;7.78;;
71914;SDS011;60387;49.994;14.660;2022-10-17T01:06:07;18.50;;;7.60;;
71914;SDS011;60387;49.994;14.660;2022-10-17T01:08:41;17.30;;;7.03;;
71914;SDS011;60387;49.994;14.660;2022-10-17T01:17:07;16.75;;;7.10;;
71914;SDS011;60387;49.994;14.660;2022-10-17T01:22:39;15.75;;;6.82;;
71914;SDS011;60387;49.994;14.660;2022-10-17T01:30:52;18.48;;;7.13;;
71914;SDS011;60387;49.994;14.660;2022-10-17T01:45:02;17.63;;;6.70;;
71914;SDS011;60387;49.994;14.660;2022-10-17T01:47:42;16.58;;;6.75;;
71914;SDS011;60387;49.994;14.660;2022-10-17T01:50:20;17.13;;;7.50;;
71914;SDS011;60387;49.994;14.660;2022-10-17T01:53:04;17.38;;;7.50;;
71914;SDS011;60387;49.994;14.660;2022-10-17T01:55:44;16.30;;;6.70;;
71914;SDS011;60387;49.994;14.660;2022-10-17T01:58:27;17.83;;;7.07;;
71914;SDS011;60387;49.994;14.660;2022-10-17T02:01:05;16.98;;;6.95;;
71914;SDS011;60387;49.994;14.660;2022-10-17T02:03:41;18.48;;;7.95;;
71914;SDS011;60387;49.994;14.660;2022-10-17T02:06:16;18.45;;;6.93;;
71914;SDS011;60387;49.994;14.660;2022-10-17T02:08:50;16.77;;;6.90;;
71914;SDS011;60387;49.994;14.660;2022-10-17T02:11:24;20.10;;;8.00;;
71914;SDS011;60387;49.994;14.660;2022-10-17T02:22:42;20.67;;;8.03;;
71914;SDS011;60387;49.994;14.660;2022-10-17T02:25:28;18.42;;;7.47;;
71914;SDS011;60387;49.994;14.660;2022-10-17T02:28:20;17.88;;;7.22;;
71914;SDS011;60387;49.994;14.660;2022-10-17T02:31:01;18.65;;;7.65;;
71914;SDS011;60387;49.994;14.660;2022-10-17T02:33:45;18.85;;;6.93;;
71914;SDS011;60387;49.994;14.660;2022-10-17T02:36:23;16.67;;;6.60;;
71914;SDS011;60387;49.994;14.660;2022-10-17T02:39:02;20.50;;;7.72;;
71914;SDS011;60387;49.994;14.660;2022-10-17T02:41:37;18.15;;;7.00;;
71914;SDS011;60387;49.994;14.660;2022-10-17T02:44:12;19.33;;;8.15;;
71914;SDS011;60387;49.994;14.660;2022-10-17T02:46:47;24.17;;;8.63;;
71914;SDS011;60387;49.994;14.660;2022-10-17T02:49:30;18.77;;;6.83;;
71914;SDS011;60387;49.994;14.660;2022-10-17T02:52:51;20.15;;;7.80;;
71914;SDS011;60387;49.994;14.660;2022-10-17T02:58:02;20.50;;;7.72;;
71914;SDS011;60387;49.994;14.660;2022-10-17T03:00:40;19.08;;;7.80;;
71914;SDS011;60387;49.994;14.660;2022-10-17T03:03:22;19.73;;;8.43;;
71914;SDS011;60387;49.994;14.660;2022-10-17T03:06:00;19.15;;;7.47;;
71914;SDS011;60387;49.994;14.660;2022-10-17T03:08:34;16.57;;;6.87;;
71914;SDS011;60387;49.994;14.660;2022-10-17T03:11:07;17.90;;;7.23;;
71914;SDS011;60387;49.994;14.660;2022-10-17T03:13:41;18.98;;;7.32;;
71914;SDS011;60387;49.994;14.660;2022-10-17T03:16:14;20.97;;;8.40;;
71914;SDS011;60387;49.994;14.660;2022-10-17T03:18:47;24.53;;;9.17;;
71914;SDS011;60387;49.994;14.660;2022-10-17T03:21:20;25.07;;;8.93;;
71914;SDS011;60387;49.994;14.660;2022-10-17T03:23:54;20.27;;;8.47;;
71914;SDS011;60387;49.994;14.660;2022-10-17T03:26:27;23.20;;;9.17;;
71914;SDS011;60387;49.994;14.660;2022-10-17T03:29:01;21.03;;;8.30;;
71914;SDS011;60387;49.994;14.660;2022-10-17T03:31:34;24.05;;;8.98;;
71914;SDS011;60387;49.994;14.660;2022-10-17T03:34:08;23.00;;;8.85;;
71914;SDS011;60387;49.994;14.660;2022-10-17T03:36:41;22.10;;;8.83;;
71914;SDS011;60387;49.994;14.660;2022-10-17T03:39:14;21.83;;;8.27;;
71914;SDS011;60387;49.994;14.660;2022-10-17T03:41:48;20.80;;;8.00;;
71914;SDS011;60387;49.994;14.660;2022-10-17T03:44:21;21.13;;;8.13;;
71914;SDS011;60387;49.994;14.660;2022-10-17T03:46:54;24.50;;;9.33;;
71914;SDS011;60387;49.994;14.660;2022-10-17T03:49:27;26.20;;;10.47;;
71914;SDS011;60387;49.994;14.660;2022-10-17T03:52:01;25.57;;;8.77;;
71914;SDS011;60387;49.994;14.660;2022-10-17T03:54:34;23.38;;;8.93;;
71914;SDS011;60387;49.994;14.660;2022-10-17T03:57:08;22.13;;;8.87;;
71914;SDS011;60387;49.994;14.660;2022-10-17T03:59:41;25.80;;;10.37;;
71914;SDS011;60387;49.994;14.660;2022-10-17T04:02:14;24.40;;;9.23;;
71914;SDS011;60387;49.994;14.660;2022-10-17T04:04:47;25.60;;;10.40;;
71914;SDS011;60387;49.994;14.660;2022-10-17T04:07:21;26.47;;;10.60;;
71914;SDS011;60387;49.994;14.660;2022-10-17T04:09:54;26.70;;;10.03;;
71914;SDS011;60387;49.994;14.660;2022-10-17T04:12:27;24.77;;;10.90;;
71914;SDS011;60387;49.994;14.660;2022-10-17T04:15:01;26.23;;;9.57;;
71914;SDS011;60387;49.994;14.660;2022-10-17T04:17:34;25.17;;;9.53;;
71914;SDS011;60387;49.994;14.660;2022-10-17T04:20:07;21.60;;;9.33;;
71914;SDS011;60387;49.994;14.660;2022-10-17T04:22:41;21.80;;;8.50;;
71914;SDS011;60387;49.994;14.660;2022-10-17T04:25:14;25.53;;;9.37;;
71914;SDS011;60387;49.994;14.660;2022-10-17T04:27:47;26.70;;;9.43;;
71914;SDS011;60387;49.994;14.660;2022-10-17T04:30:21;25.27;;;9.87;;
71914;SDS011;60387;49.994;14.660;2022-10-17T04:32:54;27.93;;;9.93;;
71914;SDS011;60387;49.994;14.660;2022-10-17T04:35:27;30.20;;;11.87;;
71914;SDS011;60387;49.994;14.660;2022-10-17T04:38:00;28.73;;;12.07;;
71914;SDS011;60387;49.994;14.660;2022-10-17T04:40:35;31.43;;;12.20;;
71914;SDS011;60387;49.994;14.660;2022-10-17T04:43:08;37.80;;;13.88;;
71914;SDS011;60387;49.994;14.660;2022-10-17T04:45:41;29.97;;;11.60;;
71914;SDS011;60387;49.994;14.660;2022-10-17T04:48:14;31.13;;;11.70;;
71914;SDS011;60387;49.994;14.660;2022-10-17T04:50:54;26.93;;;12.17;;
71914;SDS011;60387;49.994;14.660;2022-10-17T04:53:35;31.83;;;12.57;;
71914;SDS011;60387;49.994;14.660;2022-10-17T04:56:10;41.90;;;14.73;;
71914;SDS011;60387;49.994;14.660;2022-10-17T04:58:48;35.45;;;13.27;;
71914;SDS011;60387;49.994;14.660;2022-10-17T05:01:23;34.88;;;15.55;;
71914;SDS011;60387;49.994;14.660;2022-10-17T05:03:57;36.67;;;13.98;;
71914;SDS011;60387;49.994;14.660;2022-10-17T05:06:30;40.00;;;15.47;;
71914;SDS011;60387;49.994;14.660;2022-10-17T05:09:04;38.10;;;13.57;;
71914;SDS011;60387;49.994;14.660;2022-10-17T05:11:37;39.80;;;14.60;;
71914;SDS011;60387;49.994;14.660;2022-10-17T05:14:10;39.00;;;14.27;;
71914;SDS011;60387;49.994;14.660;2022-10-17T05:16:43;37.03;;;14.77;;
71914;SDS011;60387;49.994;14.660;2022-10-17T05:19:17;40.97;;;14.80;;
71914;SDS011;60387;49.994;14.660;2022-10-17T05:21:50;39.90;;;15.27;;
71914;SDS011;60387;49.994;14.660;2022-10-17T05:24:23;37.53;;;15.20;;
71914;SDS011;60387;49.994;14.660;2022-10-17T05:26:56;40.53;;;14.80;;
71914;SDS011;60387;49.994;14.660;2022-10-17T05:29:30;35.40;;;13.77;;
71914;SDS011;60387;49.994;14.660;2022-10-17T05:32:03;39.83;;;14.43;;
71914;SDS011;60387;49.994;14.660;2022-10-17T05:34:36;43.15;;;16.30;;
71914;SDS011;60387;49.994;14.660;2022-10-17T05:37:10;44.17;;;16.67;;
71914;SDS011;60387;49.994;14.660;2022-10-17T05:39:43;41.27;;;15.37;;
71914;SDS011;60387;49.994;14.660;2022-10-17T05:42:16;42.97;;;15.87;;
71914;SDS011;60387;49.994;14.660;2022-10-17T05:44:50;40.77;;;17.20;;
71914;SDS011;60387;49.994;14.660;2022-10-17T05:47:23;47.00;;;19.10;;
71914;SDS011;60387;49.994;14.660;2022-10-17T05:49:56;40.80;;;15.70;;
71914;SDS011;60387;49.994;14.660;2022-10-17T05:52:29;34.63;;;15.23;;
71914;SDS011;60387;49.994;14.660;2022-10-17T05:55:03;40.67;;;14.77;;
71914;SDS011;60387;49.994;14.660;2022-10-17T05:57:37;38.17;;;15.00;;
71914;SDS011;60387;49.994;14.660;2022-10-17T06:00:10;44.47;;;16.33;;
71914;SDS011;60387;49.994;14.660;2022-10-17T06:02:44;36.45;;;14.85;;
71914;SDS011;60387;49.994;14.660;2022-10-17T06:05:18;38.50;;;15.10;;
71914;SDS011;60387;49.994;14.660;2022-10-17T06:07:52;34.42;;;14.52;;
71914;SDS011;60387;49.994;14.660;2022-10-17T06:10:26;38.67;;;15.97;;
71914;SDS011;60387;49.994;14.660;2022-10-17T06:12:59;39.90;;;16.57;;
71914;SDS011;60387;49.994;14.660;2022-10-17T06:15:32;40.73;;;16.00;;
71914;SDS011;60387;49.994;14.660;2022-10-17T06:18:05;35.77;;;14.43;;
71914;SDS011;60387;49.994;14.660;2022-10-17T06:20:39;35.77;;;15.57;;
71914;SDS011;60387;49.994;14.660;2022-10-17T06:23:12;39.37;;;15.67;;
71914;SDS011;60387;49.994;14.660;2022-10-17T06:25:45;39.63;;;15.97;;
71914;SDS011;60387;49.994;14.660;2022-10-17T06:28:20;41.07;;;16.37;;
71914;SDS011;60387;49.994;14.660;2022-10-17T06:30:53;36.13;;;16.52;;
71914;SDS011;60387;49.994;14.660;2022-10-17T06:33:26;33.67;;;15.47;;
71914;SDS011;60387;49.994;14.660;2022-10-17T06:36:00;33.43;;;14.70;;
71914;SDS011;60387;49.994;14.660;2022-10-17T06:38:33;30.90;;;14.10;;
71914;SDS011;60387;49.994;14.660;2022-10-17T06:41:09;29.57;;;13.23;;
71914;SDS011;60387;49.994;14.660;2022-10-17T06:43:44;35.28;;;14.38;;
71914;SDS011;60387;49.994;14.660;2022-10-17T06:46:18;35.13;;;14.63;;
71914;SDS011;60387;49.994;14.660;2022-10-17T06:48:53;30.97;;;13.20;;
71914;SDS011;60387;49.994;14.660;2022-10-17T06:51:26;25.55;;;12.75;;
71914;SDS011;60387;49.994;14.660;2022-10-17T06:53:59;31.75;;;13.13;;
71914;SDS011;60387;49.994;14.660;2022-10-17T06:56:33;29.25;;;12.18;;
71914;SDS011;60387;49.994;14.660;2022-10-17T06:59:07;28.17;;;13.15;;
71914;SDS011;60387;49.994;14.660;2022-10-17T07:01:41;30.08;;;13.27;;
71914;SDS011;60387;49.994;14.660;2022-10-17T07:04:14;30.90;;;13.20;;
71914;SDS011;60387;49.994;14.660;2022-10-17T07:06:47;31.90;;;12.37;;
71914;SDS011;60387;49.994;14.660;2022-10-17T07:09:21;26.85;;;11.77;;
71914;SDS011;60387;49.994;14.660;2022-10-17T07:11:54;28.00;;;12.50;;
71914;SDS011;60387;49.994;14.660;2022-10-17T07:14:27;30.03;;;13.97;;
71914;SDS011;60387;49.994;14.660;2022-10-17T07:17:00;25.17;;;11.90;;
71914;SDS011;60387;49.994;14.660;2022-10-17T07:19:34;27.27;;;13.37;;
71914;SDS011;60387;49.994;14.660;2022-10-17T07:22:07;28.60;;;12.10;;
71914;SDS011;60387;49.994;14.660;2022-10-17T07:24:41;25.33;;;11.20;;
71914;SDS011;60387;49.994;14.660;2022-10-17T07:27:14;29.00;;;12.83;;
71914;SDS011;60387;49.994;14.660;2022-10-17T07:29:47;28.00;;;13.03;;
71914;SDS011;60387;49.994;14.660;2022-10-17T07:32:20;28.10;;;12.87;;
71914;SDS011;60387;49.994;14.660;2022-10-17T07:34:54;24.37;;;12.10;;
71914;SDS011;60387;49.994;14.660;2022-10-17T07:37:27;22.47;;;11.57;;
71914;SDS011;60387;49.994;14.660;2022-10-17T07:40:01;23.30;;;10.90;;
71914;SDS011;60387;49.994;14.660;2022-10-17T07:42:36;24.65;;;11.35;;
71914;SDS011;60387;49.994;14.660;2022-10-17T07:45:09;24.25;;;11.95;;
71914;SDS011;60387;49.994;14.660;2022-10-17T07:47:43;25.93;;;11.70;;
71914;SDS011;60387;49.994;14.660;2022-10-17T07:50:19;25.77;;;11.30;;
71914;SDS011;60387;49.994;14.660;2022-10-17T07:52:52;24.83;;;11.77;;
71914;SDS011;60387;49.994;14.660;2022-10-17T07:55:26;21.10;;;10.30;;
71914;SDS011;60387;49.994;14.660;2022-10-17T07:57:59;26.33;;;11.70;;
71914;SDS011;60387;49.994;14.660;2022-10-17T08:00:32;21.77;;;10.97;;
71914;SDS011;60387;49.994;14.660;2022-10-17T08:03:05;23.83;;;11.23;;
71914;SDS011;60387;49.994;14.660;2022-10-17T08:05:39;80.50;;;25.85;;
71914;SDS011;60387;49.994;14.660;2022-10-17T08:08:12;22.13;;;10.63;;
71914;SDS011;60387;49.994;14.660;2022-10-17T08:10:45;26.57;;;12.23;;
71914;SDS011;60387;49.994;14.660;2022-10-17T08:13:19;21.90;;;11.17;;
71914;SDS011;60387;49.994;14.660;2022-10-17T08:15:53;25.93;;;12.37;;
71914;SDS011;60387;49.994;14.660;2022-10-17T08:18:26;21.83;;;10.87;;
71914;SDS011;60387;49.994;14.660;2022-10-17T08:21:00;21.88;;;11.23;;
71914;SDS011;60387;49.994;14.660;2022-10-17T08:23:35;21.58;;;10.60;;
71914;SDS011;60387;49.994;14.660;2022-10-17T08:26:09;22.30;;;10.50;;
71914;SDS011;60387;49.994;14.660;2022-10-17T08:28:42;20.80;;;10.80;;
71914;SDS011;60387;49.994;14.660;2022-10-17T08:31:17;21.73;;;10.47;;
71914;SDS011;60387;49.994;14.660;2022-10-17T08:33:51;19.40;;;10.68;;
71914;SDS011;60387;49.994;14.660;2022-10-17T08:36:24;21.73;;;10.60;;
71914;SDS011;60387;49.994;14.660;2022-10-17T08:38:58;19.20;;;9.57;;
71914;SDS011;60387;49.994;14.660;2022-10-17T08:47:14;20.48;;;10.73;;
71914;SDS011;60387;49.994;14.660;2022-10-17T08:49:55;21.67;;;10.63;;
71914;SDS011;60387;49.994;14.660;2022-10-17T08:52:42;18.52;;;9.68;;
71914;SDS011;60387;49.994;14.660;2022-10-17T08:55:40;18.10;;;9.70;;
71914;SDS011;60387;49.994;14.660;2022-10-17T08:58:30;20.60;;;10.25;;
71914;SDS011;60387;49.994;14.660;2022-10-17T09:09:38;19.60;;;9.57;;
71914;SDS011;60387;49.994;14.660;2022-10-17T09:12:39;19.92;;;10.07;;
71914;SDS011;60387;49.994;14.660;2022-10-17T09:18:16;19.02;;;9.80;;
71914;SDS011;60387;49.994;14.660;2022-10-17T09:21:01;20.00;;;10.43;;
71914;SDS011;60387;49.994;14.660;2022-10-17T09:23:44;19.10;;;10.43;;
71914;SDS011;60387;49.994;14.660;2022-10-17T09:26:38;19.60;;;9.57;;
71914;SDS011;60387;49.994;14.660;2022-10-17T09:29:17;20.50;;;9.82;;
71914;SDS011;60387;49.994;14.660;2022-10-17T09:31:59;17.02;;;9.85;;
71914;SDS011;60387;49.994;14.660;2022-10-17T09:34:36;18.88;;;10.38;;
71914;SDS011;60387;49.994;14.660;2022-10-17T09:37:10;20.77;;;10.70;;
71914;SDS011;60387;49.994;14.660;2022-10-17T09:39:46;18.87;;;10.60;;
71914;SDS011;60387;49.994;14.660;2022-10-17T09:42:19;18.20;;;9.90;;
71914;SDS011;60387;49.994;14.660;2022-10-17T09:45:10;18.08;;;9.88;;
71914;SDS011;60387;49.994;14.660;2022-10-17T09:47:51;18.75;;;9.65;;
71914;SDS011;60387;49.994;14.660;2022-10-17T09:50:47;18.33;;;9.17;;
71914;SDS011;60387;49.994;14.660;2022-10-17T09:53:24;20.00;;;9.77;;
71914;SDS011;60387;49.994;14.660;2022-10-17T09:56:12;17.23;;;9.25;;
71914;SDS011;60387;49.994;14.660;2022-10-17T09:58:48;18.30;;;9.10;;
71914;SDS011;60387;49.994;14.660;2022-10-17T10:04:07;19.47;;;10.20;;
71914;SDS011;60387;49.994;14.660;2022-10-17T10:06:59;18.67;;;9.63;;
71914;SDS011;60387;49.994;14.660;2022-10-17T10:09:34;16.95;;;9.20;;
71914;SDS011;60387;49.994;14.660;2022-10-17T10:12:15;16.25;;;9.35;;
71914;SDS011;60387;49.994;14.660;2022-10-17T10:14:51;17.30;;;9.15;;
71914;SDS011;60387;49.994;14.660;2022-10-17T10:17:35;15.03;;;8.33;;
71914;SDS011;60387;49.994;14.660;2022-10-17T10:20:30;19.60;;;9.63;;
71914;SDS011;60387;49.994;14.660;2022-10-17T10:23:06;17.60;;;8.90;;
71914;SDS011;60387;49.994;14.660;2022-10-17T10:25:48;16.13;;;8.65;;
71914;SDS011;60387;49.994;14.660;2022-10-17T10:28:34;18.63;;;9.82;;
71914;SDS011;60387;49.994;14.660;2022-10-17T10:31:08;17.27;;;9.20;;
71914;SDS011;60387;49.994;14.660;2022-10-17T10:33:42;19.17;;;9.23;;
71914;SDS011;60387;49.994;14.660;2022-10-17T10:36:16;16.27;;;8.90;;
71914;SDS011;60387;49.994;14.660;2022-10-17T10:38:51;17.97;;;8.90;;
71914;SDS011;60387;49.994;14.660;2022-10-17T10:41:27;17.77;;;8.37;;
71914;SDS011;60387;49.994;14.660;2022-10-17T10:44:00;17.33;;;8.47;;
71914;SDS011;60387;49.994;14.660;2022-10-17T10:46:33;16.37;;;8.70;;
71914;SDS011;60387;49.994;14.660;2022-10-17T10:49:07;16.50;;;8.43;;
71914;SDS011;60387;49.994;14.660;2022-10-17T10:52:01;15.38;;;8.05;;
71914;SDS011;60387;49.994;14.660;2022-10-17T10:54:38;18.07;;;8.70;;
71914;SDS011;60387;49.994;14.660;2022-10-17T10:57:19;16.13;;;8.27;;
71914;SDS011;60387;49.994;14.660;2022-10-17T11:05:46;14.20;;;7.85;;
71914;SDS011;60387;49.994;14.660;2022-10-17T11:11:44;15.15;;;8.48;;
71914;SDS011;60387;49.994;14.660;2022-10-17T11:14:27;15.48;;;8.43;;
71914;SDS011;60387;49.994;14.660;2022-10-17T11:22:35;14.88;;;7.72;;
71914;SDS011;60387;49.994;14.660;2022-10-17T11:25:15;14.33;;;7.73;;
71914;SDS011;60387;49.994;14.660;2022-10-17T11:27:59;15.15;;;7.88;;
71914;SDS011;60387;49.994;14.660;2022-10-17T11:30:43;14.63;;;8.10;;
71914;SDS011;60387;49.994;14.660;2022-10-17T11:34:03;14.85;;;7.82;;
71914;SDS011;60387;49.994;14.660;2022-10-17T11:36:20;13.95;;;7.15;;
71914;SDS011;60387;49.994;14.660;2022-10-17T11:38:59;13.37;;;6.97;;
71914;SDS011;60387;49.994;14.660;2022-10-17T11:41:45;14.85;;;7.75;;
71914;SDS011;60387;49.994;14.660;2022-10-17T11:44:35;13.25;;;7.35;;
71914;SDS011;60387;49.994;14.660;2022-10-17T11:50:42;18.08;;;8.43;;
71914;SDS011;60387;49.994;14.660;2022-10-17T11:53:21;12.97;;;6.43;;
71914;SDS011;60387;49.994;14.660;2022-10-17T11:55:57;14.60;;;7.90;;
71914;SDS011;60387;49.994;14.660;2022-10-17T11:58:38;12.95;;;6.80;;
71914;SDS011;60387;49.994;14.660;2022-10-17T12:07:16;14.30;;;7.07;;
71914;SDS011;60387;49.994;14.660;2022-10-17T12:09:54;13.30;;;7.03;;
71914;SDS011;60387;49.994;14.660;2022-10-17T12:12:30;13.23;;;7.13;;
71914;SDS011;60387;49.994;14.660;2022-10-17T12:17:44;14.73;;;7.13;;
71914;SDS011;60387;49.994;14.660;2022-10-17T12:25:52;16.25;;;7.43;;
71914;SDS011;60387;49.994;14.660;2022-10-17T12:49:42;15.70;;;8.43;;
71914;SDS011;60387;49.994;14.660;2022-10-17T13:02:52;13.90;;;7.53;;
71914;SDS011;60387;49.994;14.660;2022-10-17T13:05:28;12.55;;;6.95;;
71914;SDS011;60387;49.994;14.660;2022-10-17T13:08:07;14.57;;;7.43;;
71914;SDS011;60387;49.994;14.660;2022-10-17T13:10:50;13.07;;;6.78;;
71914;SDS011;60387;49.994;14.660;2022-10-17T13:13:32;15.02;;;7.95;;
71914;SDS011;60387;49.994;14.660;2022-10-17T13:19:25;14.93;;;7.65;;
71914;SDS011;60387;49.994;14.660;2022-10-17T13:22:03;13.90;;;7.13;;
71914;SDS011;60387;49.994;14.660;2022-10-17T13:24:44;15.75;;;7.15;;
71914;SDS011;60387;49.994;14.660;2022-10-17T13:27:25;14.30;;;7.38;;
71914;SDS011;60387;49.994;14.660;2022-10-17T13:29:59;12.40;;;6.83;;
71914;SDS011;60387;49.994;14.660;2022-10-17T13:32:37;12.98;;;6.82;;
71914;SDS011;60387;49.994;14.660;2022-10-17T13:35:12;14.18;;;6.60;;
71914;SDS011;60387;49.994;14.660;2022-10-17T13:37:47;13.23;;;6.80;;
71914;SDS011;60387;49.994;14.660;2022-10-17T13:40:24;13.80;;;6.90;;
71914;SDS011;60387;49.994;14.660;2022-10-17T13:42:59;14.77;;;7.20;;
71914;SDS011;60387;49.994;14.660;2022-10-17T13:45:33;14.27;;;7.40;;
71914;SDS011;60387;49.994;14.660;2022-10-17T13:48:16;12.60;;;6.40;;
71914;SDS011;60387;49.994;14.660;2022-10-17T13:50:56;13.70;;;6.85;;
71914;SDS011;60387;49.994;14.660;2022-10-17T13:53:36;14.65;;;7.00;;
71914;SDS011;60387;49.994;14.660;2022-10-17T13:58:59;13.77;;;6.80;;
71914;SDS011;60387;49.994;14.660;2022-10-17T14:01:40;14.18;;;7.18;;
71914;SDS011;60387;49.994;14.660;2022-10-17T14:04:14;16.10;;;7.35;;
71914;SDS011;60387;49.994;14.660;2022-10-17T14:06:47;13.40;;;6.68;;
71914;SDS011;60387;49.994;14.660;2022-10-17T14:09:22;13.67;;;6.80;;
71914;SDS011;60387;49.994;14.660;2022-10-17T14:14:47;14.43;;;7.87;;
71914;SDS011;60387;49.994;14.660;2022-10-17T14:17:27;15.90;;;7.13;;
71914;SDS011;60387;49.994;14.660;2022-10-17T14:20:02;12.27;;;6.32;;
71914;SDS011;60387;49.994;14.660;2022-10-17T14:22:36;15.27;;;7.22;;
71914;SDS011;60387;49.994;14.660;2022-10-17T14:30:45;15.00;;;6.97;;
71914;SDS011;60387;49.994;14.660;2022-10-17T14:33:21;15.03;;;7.33;;
71914;SDS011;60387;49.994;14.660;2022-10-17T14:35:59;13.18;;;6.63;;
71914;SDS011;60387;49.994;14.660;2022-10-17T14:38:33;11.63;;;5.97;;
71914;SDS011;60387;49.994;14.660;2022-10-17T14:41:24;14.77;;;7.10;;
71914;SDS011;60387;49.994;14.660;2022-10-17T14:44:00;12.63;;;6.45;;
71914;SDS011;60387;49.994;14.660;2022-10-17T14:46:36;12.95;;;6.45;;
71914;SDS011;60387;49.994;14.660;2022-10-17T14:49:16;15.45;;;7.55;;
71914;SDS011;60387;49.994;14.660;2022-10-17T14:54:47;13.23;;;5.82;;
71914;SDS011;60387;49.994;14.660;2022-10-17T14:57:25;14.85;;;7.00;;
71914;SDS011;60387;49.994;14.660;2022-10-17T15:00:05;14.32;;;6.35;;
71914;SDS011;60387;49.994;14.660;2022-10-17T15:02:38;14.10;;;6.23;;
71914;SDS011;60387;49.994;14.660;2022-10-17T15:05:12;11.73;;;6.07;;
71914;SDS011;60387;49.994;14.660;2022-10-17T15:07:46;12.30;;;6.10;;
71914;SDS011;60387;49.994;14.660;2022-10-17T15:13:06;12.68;;;5.88;;
71914;SDS011;60387;49.994;14.660;2022-10-17T15:15:41;13.75;;;6.53;;
71914;SDS011;60387;49.994;14.660;2022-10-17T15:18:15;12.03;;;5.80;;
71914;SDS011;60387;49.994;14.660;2022-10-17T15:20:48;11.60;;;6.13;;
71914;SDS011;60387;49.994;14.660;2022-10-17T15:23:22;13.55;;;5.75;;
71914;SDS011;60387;49.994;14.660;2022-10-17T15:25:55;10.87;;;5.10;;
71914;SDS011;60387;49.994;14.660;2022-10-17T15:28:28;13.50;;;5.03;;
71914;SDS011;60387;49.994;14.660;2022-10-17T15:31:01;13.20;;;6.00;;
71914;SDS011;60387;49.994;14.660;2022-10-17T15:33:35;12.33;;;5.03;;
71914;SDS011;60387;49.994;14.660;2022-10-17T15:36:18;13.17;;;5.80;;
71914;SDS011;60387;49.994;14.660;2022-10-17T15:38:52;12.48;;;5.60;;
71914;SDS011;60387;49.994;14.660;2022-10-17T15:41:28;13.15;;;6.35;;
71914;SDS011;60387;49.994;14.660;2022-10-17T15:44:03;15.10;;;5.93;;
71914;SDS011;60387;49.994;14.660;2022-10-17T15:46:36;12.40;;;6.03;;
71914;SDS011;60387;49.994;14.660;2022-10-17T15:49:13;13.23;;;6.23;;
71914;SDS011;60387;49.994;14.660;2022-10-17T15:51:48;14.65;;;6.45;;
71914;SDS011;60387;49.994;14.660;2022-10-17T15:54:21;14.30;;;6.33;;
71914;SDS011;60387;49.994;14.660;2022-10-17T15:56:54;13.43;;;5.90;;
71914;SDS011;60387;49.994;14.660;2022-10-17T15:59:29;14.90;;;6.13;;
71914;SDS011;60387;49.994;14.660;2022-10-17T16:02:09;14.63;;;6.70;;
71914;SDS011;60387;49.994;14.660;2022-10-17T16:04:47;14.45;;;6.20;;
71914;SDS011;60387;49.994;14.660;2022-10-17T16:07:22;12.52;;;6.13;;
71914;SDS011;60387;49.994;14.660;2022-10-17T16:09:55;13.53;;;6.27;;
71914;SDS011;60387;49.994;14.660;2022-10-17T16:12:28;12.60;;;6.10;;
71914;SDS011;60387;49.994;14.660;2022-10-17T16:15:02;12.77;;;6.07;;
71914;SDS011;60387;49.994;14.660;2022-10-17T16:17:35;13.73;;;6.70;;
71914;SDS011;60387;49.994;14.660;2022-10-17T16:20:09;18.33;;;6.80;;
71914;SDS011;60387;49.994;14.660;2022-10-17T16:22:46;14.65;;;7.43;;
71914;SDS011;60387;49.994;14.660;2022-10-17T16:25:24;16.30;;;8.23;;
71914;SDS011;60387;49.994;14.660;2022-10-17T16:27:59;17.00;;;8.32;;
71914;SDS011;60387;49.994;14.660;2022-10-17T16:30:34;16.65;;;7.88;;
71914;SDS011;60387;49.994;14.660;2022-10-17T16:33:12;17.50;;;8.20;;
71914;SDS011;60387;49.994;14.660;2022-10-17T16:35:46;17.97;;;7.87;;
71914;SDS011;60387;49.994;14.660;2022-10-17T16:38:19;17.93;;;8.40;;
71914;SDS011;60387;49.994;14.660;2022-10-17T16:40:52;21.50;;;9.77;;
71914;SDS011;60387;49.994;14.660;2022-10-17T16:43:25;21.93;;;11.37;;
71914;SDS011;60387;49.994;14.660;2022-10-17T16:45:59;21.23;;;9.73;;
71914;SDS011;60387;49.994;14.660;2022-10-17T16:48:35;24.53;;;10.00;;
71914;SDS011;60387;49.994;14.660;2022-10-17T16:51:09;21.70;;;10.20;;
71914;SDS011;60387;49.994;14.660;2022-10-17T16:53:43;23.50;;;10.13;;
71914;SDS011;60387;49.994;14.660;2022-10-17T16:56:19;22.45;;;9.55;;
71914;SDS011;60387;49.994;14.660;2022-10-17T16:58:54;20.45;;;9.43;;
71914;SDS011;60387;49.994;14.660;2022-10-17T17:01:27;20.20;;;8.53;;
71914;SDS011;60387;49.994;14.660;2022-10-17T17:04:01;18.05;;;8.40;;
71914;SDS011;60387;49.994;14.660;2022-10-17T17:06:35;20.27;;;9.10;;
71914;SDS011;60387;49.994;14.660;2022-10-17T17:09:08;19.35;;;8.68;;
71914;SDS011;60387;49.994;14.660;2022-10-17T17:11:42;19.53;;;8.90;;
71914;SDS011;60387;49.994;14.660;2022-10-17T17:14:15;19.80;;;9.20;;
71914;SDS011;60387;49.994;14.660;2022-10-17T17:16:48;20.80;;;9.13;;
71914;SDS011;60387;49.994;14.660;2022-10-17T17:19:22;18.33;;;9.03;;
71914;SDS011;60387;49.994;14.660;2022-10-17T17:21:55;18.67;;;9.40;;
71914;SDS011;60387;49.994;14.660;2022-10-17T17:24:28;20.37;;;9.43;;
71914;SDS011;60387;49.994;14.660;2022-10-17T17:27:02;22.00;;;10.20;;
71914;SDS011;60387;49.994;14.660;2022-10-17T17:29:35;22.57;;;11.47;;
71914;SDS011;60387;49.994;14.660;2022-10-17T17:32:08;23.50;;;10.23;;